sensor_id;sensor_type;location;lat;lon;timestamp;P1;durP1;ratioP1;P2;durP2;ratioP2
44145;SDS011;29809;52.432;4.780;2022-07-23T00:01:10;4.38;;;1.00;;
44145;SDS011;29809;52.432;4.780;2022-07-23T00:03:36;1.55;;;1.10;;
44145;SDS011;29809;52.432;4.780;2022-07-23T00:06:01;1.92;;;1.17;;
44145;SDS011;29809;52.432;4.780;2022-07-23T00:08:26;2.05;;;1.40;;
44145;SDS011;29809;52.432;4.780;2022-07-23T00:10:51;1.33;;;1.23;;
44145;SDS011;29809;52.432;4.780;2022-07-23T00:13:16;1.88;;;1.15;;
44145;SDS011;29809;52.432;4.780;2022-07-23T00:15:42;4.57;;;1.35;;
44145;SDS011;29809;52.432;4.780;2022-07-23T00:18:07;1.77;;;1.30;;
44145;SDS011;29809;52.432;4.780;2022-07-23T00:20:32;1.48;;;1.08;;
44145;SDS011;29809;52.432;4.780;2022-07-23T00:22:58;2.55;;;1.20;;
44145;SDS011;29809;52.432;4.780;2022-07-23T00:25:23;2.85;;;1.30;;
44145;SDS011;29809;52.432;4.780;2022-07-23T00:27:49;1.10;;;1.10;;
44145;SDS011;29809;52.432;4.780;2022-07-23T00:30:14;2.00;;;1.10;;
44145;SDS011;29809;52.432;4.780;2022-07-23T00:35:11;3.58;;;1.55;;
44145;SDS011;29809;52.432;4.780;2022-07-23T00:37:36;1.95;;;1.30;;
44145;SDS011;29809;52.432;4.780;2022-07-23T00:40:01;1.50;;;1.40;;
44145;SDS011;29809;52.432;4.780;2022-07-23T00:42:27;3.83;;;1.20;;
44145;SDS011;29809;52.432;4.780;2022-07-23T00:44:52;2.60;;;1.40;;
44145;SDS011;29809;52.432;4.780;2022-07-23T00:47:17;3.03;;;1.50;;
44145;SDS011;29809;52.432;4.780;2022-07-23T00:49:42;1.75;;;1.30;;
44145;SDS011;29809;52.432;4.780;2022-07-23T00:52:07;1.52;;;1.25;;
44145;SDS011;29809;52.432;4.780;2022-07-23T00:54:33;1.27;;;1.13;;
44145;SDS011;29809;52.432;4.780;2022-07-23T00:56:58;1.73;;;1.25;;
44145;SDS011;29809;52.432;4.780;2022-07-23T00:59:23;3.40;;;1.38;;
44145;SDS011;29809;52.432;4.780;2022-07-23T01:01:49;2.60;;;1.02;;
44145;SDS011;29809;52.432;4.780;2022-07-23T01:04:14;3.67;;;1.20;;
44145;SDS011;29809;52.432;4.780;2022-07-23T01:06:40;1.67;;;1.20;;
44145;SDS011;29809;52.432;4.780;2022-07-23T01:09:05;1.77;;;1.00;;
44145;SDS011;29809;52.432;4.780;2022-07-23T01:11:32;1.27;;;1.00;;
44145;SDS011;29809;52.432;4.780;2022-07-23T01:13:58;1.45;;;1.00;;
44145;SDS011;29809;52.432;4.780;2022-07-23T01:16:23;2.22;;;1.17;;
44145;SDS011;29809;52.432;4.780;2022-07-23T01:18:48;3.38;;;1.30;;
44145;SDS011;29809;52.432;4.780;2022-07-23T01:21:13;2.92;;;0.98;;
44145;SDS011;29809;52.432;4.780;2022-07-23T01:23:39;1.25;;;1.08;;
44145;SDS011;29809;52.432;4.780;2022-07-23T01:26:04;2.10;;;1.45;;
44145;SDS011;29809;52.432;4.780;2022-07-23T01:28:30;1.60;;;1.38;;
44145;SDS011;29809;52.432;4.780;2022-07-23T01:30:55;4.57;;;1.30;;
44145;SDS011;29809;52.432;4.780;2022-07-23T01:33:20;2.78;;;1.23;;
44145;SDS011;29809;52.432;4.780;2022-07-23T01:35:45;1.85;;;1.35;;
44145;SDS011;29809;52.432;4.780;2022-07-23T01:38:10;2.10;;;1.50;;
44145;SDS011;29809;52.432;4.780;2022-07-23T01:40:36;1.70;;;1.20;;
44145;SDS011;29809;52.432;4.780;2022-07-23T01:43:01;2.47;;;1.40;;
44145;SDS011;29809;52.432;4.780;2022-07-23T01:45:26;1.40;;;1.27;;
44145;SDS011;29809;52.432;4.780;2022-07-23T01:47:51;1.30;;;1.20;;
44145;SDS011;29809;52.432;4.780;2022-07-23T01:50:17;0.80;;;0.80;;
44145;SDS011;29809;52.432;4.780;2022-07-23T01:52:42;2.63;;;1.52;;
44145;SDS011;29809;52.432;4.780;2022-07-23T01:55:07;1.00;;;1.00;;
44145;SDS011;29809;52.432;4.780;2022-07-23T01:57:32;1.90;;;1.23;;
44145;SDS011;29809;52.432;4.780;2022-07-23T01:59:58;1.98;;;1.20;;
44145;SDS011;29809;52.432;4.780;2022-07-23T02:02:23;1.02;;;1.00;;
44145;SDS011;29809;52.432;4.780;2022-07-23T02:04:49;1.27;;;1.15;;
44145;SDS011;29809;52.432;4.780;2022-07-23T02:07:14;0.93;;;0.93;;
44145;SDS011;29809;52.432;4.780;2022-07-23T02:09:39;2.47;;;1.40;;
44145;SDS011;29809;52.432;4.780;2022-07-23T02:12:05;1.77;;;1.25;;
44145;SDS011;29809;52.432;4.780;2022-07-23T02:14:30;2.15;;;1.23;;
44145;SDS011;29809;52.432;4.780;2022-07-23T02:16:55;1.83;;;1.10;;
44145;SDS011;29809;52.432;4.780;2022-07-23T02:19:20;1.20;;;1.10;;
44145;SDS011;29809;52.432;4.780;2022-07-23T02:21:46;2.35;;;1.00;;
44145;SDS011;29809;52.432;4.780;2022-07-23T02:24:11;1.40;;;1.10;;
44145;SDS011;29809;52.432;4.780;2022-07-23T02:26:36;1.27;;;1.17;;
44145;SDS011;29809;52.432;4.780;2022-07-23T02:29:02;2.28;;;1.33;;
44145;SDS011;29809;52.432;4.780;2022-07-23T02:31:28;1.23;;;1.10;;
44145;SDS011;29809;52.432;4.780;2022-07-23T02:33:54;1.55;;;1.00;;
44145;SDS011;29809;52.432;4.780;2022-07-23T02:36:19;2.15;;;1.45;;
44145;SDS011;29809;52.432;4.780;2022-07-23T02:38:44;1.75;;;1.38;;
44145;SDS011;29809;52.432;4.780;2022-07-23T02:41:09;1.55;;;1.20;;
44145;SDS011;29809;52.432;4.780;2022-07-23T02:43:35;2.88;;;1.00;;
44145;SDS011;29809;52.432;4.780;2022-07-23T02:46:00;1.65;;;1.00;;
44145;SDS011;29809;52.432;4.780;2022-07-23T02:48:25;2.17;;;1.15;;
44145;SDS011;29809;52.432;4.780;2022-07-23T02:50:51;1.70;;;1.23;;
44145;SDS011;29809;52.432;4.780;2022-07-23T02:53:17;2.45;;;1.20;;
44145;SDS011;29809;52.432;4.780;2022-07-23T02:55:42;1.63;;;1.35;;
44145;SDS011;29809;52.432;4.780;2022-07-23T02:58:08;2.70;;;1.20;;
44145;SDS011;29809;52.432;4.780;2022-07-23T03:00:33;1.77;;;1.10;;
44145;SDS011;29809;52.432;4.780;2022-07-23T03:02:58;1.55;;;1.10;;
44145;SDS011;29809;52.432;4.780;2022-07-23T03:05:23;2.90;;;1.05;;
44145;SDS011;29809;52.432;4.780;2022-07-23T03:07:49;1.20;;;1.10;;
44145;SDS011;29809;52.432;4.780;2022-07-23T03:10:14;3.33;;;1.10;;
44145;SDS011;29809;52.432;4.780;2022-07-23T03:12:39;1.90;;;1.23;;
44145;SDS011;29809;52.432;4.780;2022-07-23T03:15:05;2.40;;;1.73;;
44145;SDS011;29809;52.432;4.780;2022-07-23T03:17:30;1.52;;;1.00;;
44145;SDS011;29809;52.432;4.780;2022-07-23T03:19:55;1.42;;;1.10;;
44145;SDS011;29809;52.432;4.780;2022-07-23T03:22:21;1.00;;;1.00;;
44145;SDS011;29809;52.432;4.780;2022-07-23T03:24:46;1.63;;;1.10;;
44145;SDS011;29809;52.432;4.780;2022-07-23T03:27:21;1.15;;;1.05;;
44145;SDS011;29809;52.432;4.780;2022-07-23T03:29:46;0.90;;;0.88;;
44145;SDS011;29809;52.432;4.780;2022-07-23T03:32:12;1.88;;;1.30;;
44145;SDS011;29809;52.432;4.780;2022-07-23T03:34:37;1.10;;;0.95;;
44145;SDS011;29809;52.432;4.780;2022-07-23T03:37:02;1.23;;;1.00;;
44145;SDS011;29809;52.432;4.780;2022-07-23T03:39:27;0.60;;;0.60;;
44145;SDS011;29809;52.432;4.780;2022-07-23T03:41:53;1.88;;;0.90;;
44145;SDS011;29809;52.432;4.780;2022-07-23T03:44:18;0.85;;;0.80;;
44145;SDS011;29809;52.432;4.780;2022-07-23T03:46:43;1.25;;;0.90;;
44145;SDS011;29809;52.432;4.780;2022-07-23T03:49:08;1.50;;;1.15;;
44145;SDS011;29809;52.432;4.780;2022-07-23T03:51:34;1.30;;;0.80;;
44145;SDS011;29809;52.432;4.780;2022-07-23T03:53:59;0.77;;;0.73;;
44145;SDS011;29809;52.432;4.780;2022-07-23T03:56:24;0.93;;;0.82;;
44145;SDS011;29809;52.432;4.780;2022-07-23T03:58:49;1.20;;;1.10;;
44145;SDS011;29809;52.432;4.780;2022-07-23T04:01:15;1.67;;;0.80;;
44145;SDS011;29809;52.432;4.780;2022-07-23T04:03:40;1.73;;;0.95;;
44145;SDS011;29809;52.432;4.780;2022-07-23T04:06:05;1.00;;;1.00;;
44145;SDS011;29809;52.432;4.780;2022-07-23T04:08:31;2.78;;;1.08;;
44145;SDS011;29809;52.432;4.780;2022-07-23T04:10:56;2.60;;;1.33;;
44145;SDS011;29809;52.432;4.780;2022-07-23T04:13:21;2.97;;;1.40;;
44145;SDS011;29809;52.432;4.780;2022-07-23T04:15:47;1.50;;;1.40;;
44145;SDS011;29809;52.432;4.780;2022-07-23T04:18:12;4.82;;;1.70;;
44145;SDS011;29809;52.432;4.780;2022-07-23T04:20:37;3.72;;;2.30;;
44145;SDS011;29809;52.432;4.780;2022-07-23T04:23:03;1.60;;;1.50;;
44145;SDS011;29809;52.432;4.780;2022-07-23T04:25:28;1.60;;;1.50;;
44145;SDS011;29809;52.432;4.780;2022-07-23T04:27:53;1.30;;;1.17;;
44145;SDS011;29809;52.432;4.780;2022-07-23T04:30:19;1.92;;;1.60;;
44145;SDS011;29809;52.432;4.780;2022-07-23T04:32:44;1.70;;;1.20;;
44145;SDS011;29809;52.432;4.780;2022-07-23T04:35:09;2.38;;;1.55;;
44145;SDS011;29809;52.432;4.780;2022-07-23T04:37:34;1.58;;;1.45;;
44145;SDS011;29809;52.432;4.780;2022-07-23T04:40:00;2.03;;;1.40;;
44145;SDS011;29809;52.432;4.780;2022-07-23T04:42:25;2.47;;;1.52;;
44145;SDS011;29809;52.432;4.780;2022-07-23T04:44:50;1.80;;;1.70;;
44145;SDS011;29809;52.432;4.780;2022-07-23T04:47:15;2.65;;;2.17;;
44145;SDS011;29809;52.432;4.780;2022-07-23T04:49:41;2.60;;;2.40;;
44145;SDS011;29809;52.432;4.780;2022-07-23T04:52:06;3.03;;;2.63;;
44145;SDS011;29809;52.432;4.780;2022-07-23T04:54:31;8.18;;;2.85;;
44145;SDS011;29809;52.432;4.780;2022-07-23T04:56:56;1.77;;;1.60;;
44145;SDS011;29809;52.432;4.780;2022-07-23T04:59:21;2.90;;;2.70;;
44145;SDS011;29809;52.432;4.780;2022-07-23T05:01:47;2.95;;;1.92;;
44145;SDS011;29809;52.432;4.780;2022-07-23T05:04:12;2.60;;;2.00;;
44145;SDS011;29809;52.432;4.780;2022-07-23T05:06:37;4.68;;;1.88;;
44145;SDS011;29809;52.432;4.780;2022-07-23T05:09:03;4.15;;;2.00;;
44145;SDS011;29809;52.432;4.780;2022-07-23T05:11:28;1.52;;;1.42;;
44145;SDS011;29809;52.432;4.780;2022-07-23T05:13:53;2.40;;;1.60;;
44145;SDS011;29809;52.432;4.780;2022-07-23T05:16:18;6.05;;;1.90;;
44145;SDS011;29809;52.432;4.780;2022-07-23T05:18:44;2.50;;;1.90;;
44145;SDS011;29809;52.432;4.780;2022-07-23T05:21:09;2.50;;;1.58;;
44145;SDS011;29809;52.432;4.780;2022-07-23T05:23:34;2.15;;;1.52;;
44145;SDS011;29809;52.432;4.780;2022-07-23T05:25:59;1.55;;;1.40;;
44145;SDS011;29809;52.432;4.780;2022-07-23T05:28:25;4.57;;;1.92;;
44145;SDS011;29809;52.432;4.780;2022-07-23T05:30:50;2.08;;;1.55;;
44145;SDS011;29809;52.432;4.780;2022-07-23T05:33:17;3.65;;;1.50;;
44145;SDS011;29809;52.432;4.780;2022-07-23T05:35:43;1.73;;;1.63;;
44145;SDS011;29809;52.432;4.780;2022-07-23T05:38:08;2.20;;;1.40;;
44145;SDS011;29809;52.432;4.780;2022-07-23T05:40:33;1.45;;;1.33;;
44145;SDS011;29809;52.432;4.780;2022-07-23T05:42:58;1.92;;;1.33;;
44145;SDS011;29809;52.432;4.780;2022-07-23T05:45:24;2.63;;;1.77;;
44145;SDS011;29809;52.432;4.780;2022-07-23T05:47:49;2.55;;;1.20;;
44145;SDS011;29809;52.432;4.780;2022-07-23T05:50:14;2.65;;;1.63;;
44145;SDS011;29809;52.432;4.780;2022-07-23T05:52:40;2.10;;;1.20;;
44145;SDS011;29809;52.432;4.780;2022-07-23T05:55:06;102.75;;;23.75;;
44145;SDS011;29809;52.432;4.780;2022-07-23T05:57:31;179.15;;;43.90;;
44145;SDS011;29809;52.432;4.780;2022-07-23T05:59:56;147.55;;;46.97;;
44145;SDS011;29809;52.432;4.780;2022-07-23T06:02:22;135.00;;;41.63;;
44145;SDS011;29809;52.432;4.780;2022-07-23T06:04:47;122.70;;;39.60;;
44145;SDS011;29809;52.432;4.780;2022-07-23T06:07:12;98.88;;;33.97;;
44145;SDS011;29809;52.432;4.780;2022-07-23T06:09:37;80.93;;;31.35;;
44145;SDS011;29809;52.432;4.780;2022-07-23T06:12:03;61.30;;;22.10;;
44145;SDS011;29809;52.432;4.780;2022-07-23T06:14:28;55.22;;;20.83;;
44145;SDS011;29809;52.432;4.780;2022-07-23T06:16:53;38.95;;;16.67;;
44145;SDS011;29809;52.432;4.780;2022-07-23T06:19:18;33.08;;;13.45;;
44145;SDS011;29809;52.432;4.780;2022-07-23T06:21:44;24.63;;;8.73;;
44145;SDS011;29809;52.432;4.780;2022-07-23T06:24:09;18.13;;;7.20;;
44145;SDS011;29809;52.432;4.780;2022-07-23T06:26:34;16.73;;;6.57;;
44145;SDS011;29809;52.432;4.780;2022-07-23T06:28:59;13.68;;;5.38;;
44145;SDS011;29809;52.432;4.780;2022-07-23T06:31:25;15.52;;;4.32;;
44145;SDS011;29809;52.432;4.780;2022-07-23T06:33:50;8.63;;;4.15;;
44145;SDS011;29809;52.432;4.780;2022-07-23T06:36:15;6.03;;;3.33;;
44145;SDS011;29809;52.432;4.780;2022-07-23T06:38:40;7.28;;;3.40;;
44145;SDS011;29809;52.432;4.780;2022-07-23T06:41:05;5.90;;;2.95;;
44145;SDS011;29809;52.432;4.780;2022-07-23T06:43:31;6.15;;;2.63;;
44145;SDS011;29809;52.432;4.780;2022-07-23T06:45:56;5.20;;;2.15;;
44145;SDS011;29809;52.432;4.780;2022-07-23T06:48:21;4.43;;;2.10;;
44145;SDS011;29809;52.432;4.780;2022-07-23T06:50:47;3.78;;;1.88;;
44145;SDS011;29809;52.432;4.780;2022-07-23T06:53:13;2.83;;;1.90;;
44145;SDS011;29809;52.432;4.780;2022-07-23T06:55:38;4.18;;;2.15;;
44145;SDS011;29809;52.432;4.780;2022-07-23T06:58:03;3.28;;;1.52;;
44145;SDS011;29809;52.432;4.780;2022-07-23T07:00:29;6.20;;;1.75;;
44145;SDS011;29809;52.432;4.780;2022-07-23T07:02:56;2.28;;;1.55;;
44145;SDS011;29809;52.432;4.780;2022-07-23T07:05:21;2.20;;;1.35;;
44145;SDS011;29809;52.432;4.780;2022-07-23T07:07:47;2.95;;;1.15;;
44145;SDS011;29809;52.432;4.780;2022-07-23T07:10:13;2.33;;;1.02;;
44145;SDS011;29809;52.432;4.780;2022-07-23T07:12:38;3.35;;;1.45;;
44145;SDS011;29809;52.432;4.780;2022-07-23T07:15:03;3.45;;;0.90;;
44145;SDS011;29809;52.432;4.780;2022-07-23T07:17:29;3.10;;;0.98;;
44145;SDS011;29809;52.432;4.780;2022-07-23T07:19:54;1.38;;;0.80;;
44145;SDS011;29809;52.432;4.780;2022-07-23T07:22:19;1.65;;;0.90;;
44145;SDS011;29809;52.432;4.780;2022-07-23T07:24:44;1.58;;;0.75;;
44145;SDS011;29809;52.432;4.780;2022-07-23T07:27:10;2.03;;;1.02;;
44145;SDS011;29809;52.432;4.780;2022-07-23T07:29:35;2.85;;;0.80;;
44145;SDS011;29809;52.432;4.780;2022-07-23T07:32:00;1.77;;;0.80;;
44145;SDS011;29809;52.432;4.780;2022-07-23T07:34:25;1.38;;;0.55;;
44145;SDS011;29809;52.432;4.780;2022-07-23T07:36:51;0.88;;;0.65;;
44145;SDS011;29809;52.432;4.780;2022-07-23T07:39:16;2.38;;;0.65;;
44145;SDS011;29809;52.432;4.780;2022-07-23T07:41:41;1.33;;;0.68;;
44145;SDS011;29809;52.432;4.780;2022-07-23T07:44:07;1.02;;;0.70;;
44145;SDS011;29809;52.432;4.780;2022-07-23T07:46:32;1.75;;;0.82;;
44145;SDS011;29809;52.432;4.780;2022-07-23T07:48:57;1.08;;;0.70;;
44145;SDS011;29809;52.432;4.780;2022-07-23T07:51:22;0.85;;;0.60;;
44145;SDS011;29809;52.432;4.780;2022-07-23T07:53:48;2.42;;;1.05;;
44145;SDS011;29809;52.432;4.780;2022-07-23T07:56:13;1.90;;;0.52;;
44145;SDS011;29809;52.432;4.780;2022-07-23T07:58:38;0.98;;;0.52;;
44145;SDS011;29809;52.432;4.780;2022-07-23T08:01:03;2.55;;;0.75;;
44145;SDS011;29809;52.432;4.780;2022-07-23T08:03:29;1.08;;;0.70;;
44145;SDS011;29809;52.432;4.780;2022-07-23T08:05:54;1.42;;;0.50;;
44145;SDS011;29809;52.432;4.780;2022-07-23T08:08:19;1.77;;;0.77;;
44145;SDS011;29809;52.432;4.780;2022-07-23T08:10:45;1.75;;;0.80;;
44145;SDS011;29809;52.432;4.780;2022-07-23T08:13:12;2.65;;;0.85;;
44145;SDS011;29809;52.432;4.780;2022-07-23T08:15:38;2.20;;;0.77;;
44145;SDS011;29809;52.432;4.780;2022-07-23T08:18:03;2.38;;;0.75;;
44145;SDS011;29809;52.432;4.780;2022-07-23T08:20:29;3.28;;;0.80;;
44145;SDS011;29809;52.432;4.780;2022-07-23T08:22:55;1.08;;;0.80;;
44145;SDS011;29809;52.432;4.780;2022-07-23T08:25:21;1.50;;;0.85;;
44145;SDS011;29809;52.432;4.780;2022-07-23T08:27:47;1.77;;;0.90;;
44145;SDS011;29809;52.432;4.780;2022-07-23T08:30:12;1.98;;;0.77;;
44145;SDS011;29809;52.432;4.780;2022-07-23T08:32:51;1.70;;;0.93;;
44145;SDS011;29809;52.432;4.780;2022-07-23T08:35:18;1.63;;;0.80;;
44145;SDS011;29809;52.432;4.780;2022-07-23T08:37:46;1.98;;;0.85;;
44145;SDS011;29809;52.432;4.780;2022-07-23T08:40:11;2.85;;;1.00;;
44145;SDS011;29809;52.432;4.780;2022-07-23T08:42:37;1.50;;;0.95;;
44145;SDS011;29809;52.432;4.780;2022-07-23T08:45:02;3.63;;;1.00;;
44145;SDS011;29809;52.432;4.780;2022-07-23T08:47:28;2.13;;;0.90;;
44145;SDS011;29809;52.432;4.780;2022-07-23T08:49:54;1.17;;;0.80;;
44145;SDS011;29809;52.432;4.780;2022-07-23T08:52:19;4.15;;;1.52;;
44145;SDS011;29809;52.432;4.780;2022-07-23T08:54:45;2.17;;;1.15;;
44145;SDS011;29809;52.432;4.780;2022-07-23T08:57:10;2.55;;;1.10;;
44145;SDS011;29809;52.432;4.780;2022-07-23T08:59:35;2.75;;;1.00;;
44145;SDS011;29809;52.432;4.780;2022-07-23T09:02:01;8.07;;;1.20;;
44145;SDS011;29809;52.432;4.780;2022-07-23T09:04:26;2.00;;;0.80;;
44145;SDS011;29809;52.432;4.780;2022-07-23T09:06:51;1.95;;;1.00;;
44145;SDS011;29809;52.432;4.780;2022-07-23T09:09:20;3.50;;;1.40;;
44145;SDS011;29809;52.432;4.780;2022-07-23T09:11:46;2.90;;;1.27;;
44145;SDS011;29809;52.432;4.780;2022-07-23T09:14:11;4.88;;;1.00;;
44145;SDS011;29809;52.432;4.780;2022-07-23T09:16:37;3.53;;;1.42;;
44145;SDS011;29809;52.432;4.780;2022-07-23T09:19:06;4.10;;;1.27;;
44145;SDS011;29809;52.432;4.780;2022-07-23T09:24:12;2.13;;;1.17;;
44145;SDS011;29809;52.432;4.780;2022-07-23T09:26:46;4.20;;;1.33;;
44145;SDS011;29809;52.432;4.780;2022-07-23T09:29:24;3.20;;;1.10;;
44145;SDS011;29809;52.432;4.780;2022-07-23T09:31:51;1.63;;;1.05;;
44145;SDS011;29809;52.432;4.780;2022-07-23T09:34:27;2.00;;;1.20;;
44145;SDS011;29809;52.432;4.780;2022-07-23T09:36:53;2.15;;;1.20;;
44145;SDS011;29809;52.432;4.780;2022-07-23T09:39:29;2.88;;;1.15;;
44145;SDS011;29809;52.432;4.780;2022-07-23T09:41:55;2.55;;;1.20;;
44145;SDS011;29809;52.432;4.780;2022-07-23T09:44:20;2.15;;;1.05;;
44145;SDS011;29809;52.432;4.780;2022-07-23T09:46:47;2.55;;;1.38;;
44145;SDS011;29809;52.432;4.780;2022-07-23T09:49:13;3.58;;;2.05;;
44145;SDS011;29809;52.432;4.780;2022-07-23T09:51:46;5.80;;;2.22;;
44145;SDS011;29809;52.432;4.780;2022-07-23T09:54:22;1.45;;;1.33;;
44145;SDS011;29809;52.432;4.780;2022-07-23T09:56:49;2.58;;;1.58;;
44145;SDS011;29809;52.432;4.780;2022-07-23T09:59:16;5.28;;;1.38;;
44145;SDS011;29809;52.432;4.780;2022-07-23T10:01:43;5.15;;;1.60;;
44145;SDS011;29809;52.432;4.780;2022-07-23T10:04:09;5.70;;;1.42;;
44145;SDS011;29809;52.432;4.780;2022-07-23T10:06:35;9.90;;;2.92;;
44145;SDS011;29809;52.432;4.780;2022-07-23T10:09:00;2.38;;;1.63;;
44145;SDS011;29809;52.432;4.780;2022-07-23T10:11:26;8.98;;;2.80;;
44145;SDS011;29809;52.432;4.780;2022-07-23T10:13:52;8.93;;;4.43;;
44145;SDS011;29809;52.432;4.780;2022-07-23T10:16:22;5.88;;;3.30;;
44145;SDS011;29809;52.432;4.780;2022-07-23T10:18:48;3.60;;;2.08;;
44145;SDS011;29809;52.432;4.780;2022-07-23T10:21:16;6.30;;;2.75;;
44145;SDS011;29809;52.432;4.780;2022-07-23T10:23:45;5.38;;;2.17;;
44145;SDS011;29809;52.432;4.780;2022-07-23T10:26:24;3.72;;;1.67;;
44145;SDS011;29809;52.432;4.780;2022-07-23T10:31:46;2.75;;;1.80;;
44145;SDS011;29809;52.432;4.780;2022-07-23T10:34:28;3.15;;;1.48;;
44145;SDS011;29809;52.432;4.780;2022-07-23T10:36:57;3.00;;;1.30;;
44145;SDS011;29809;52.432;4.780;2022-07-23T10:41:53;1.77;;;1.40;;
44145;SDS011;29809;52.432;4.780;2022-07-23T10:44:37;2.22;;;1.55;;
44145;SDS011;29809;52.432;4.780;2022-07-23T10:47:03;1.52;;;1.27;;
44145;SDS011;29809;52.432;4.780;2022-07-23T10:49:33;2.80;;;1.30;;
44145;SDS011;29809;52.432;4.780;2022-07-23T10:54:39;3.25;;;1.63;;
44145;SDS011;29809;52.432;4.780;2022-07-23T10:57:06;3.92;;;1.52;;
44145;SDS011;29809;52.432;4.780;2022-07-23T10:59:43;4.55;;;1.77;;
44145;SDS011;29809;52.432;4.780;2022-07-23T11:02:20;2.55;;;1.77;;
44145;SDS011;29809;52.432;4.780;2022-07-23T11:04:47;2.05;;;1.50;;
44145;SDS011;29809;52.432;4.780;2022-07-23T11:07:14;2.13;;;1.30;;
44145;SDS011;29809;52.432;4.780;2022-07-23T11:09:40;2.50;;;1.45;;
44145;SDS011;29809;52.432;4.780;2022-07-23T11:12:51;2.42;;;1.83;;
44145;SDS011;29809;52.432;4.780;2022-07-23T11:17:22;3.80;;;1.73;;
44145;SDS011;29809;52.432;4.780;2022-07-23T11:25:00;9.38;;;1.85;;
44145;SDS011;29809;52.432;4.780;2022-07-23T11:27:42;3.15;;;1.80;;
44145;SDS011;29809;52.432;4.780;2022-07-23T11:30:08;5.90;;;1.70;;
44145;SDS011;29809;52.432;4.780;2022-07-23T11:32:34;2.55;;;1.40;;
44145;SDS011;29809;52.432;4.780;2022-07-23T11:35:02;3.42;;;1.77;;
44145;SDS011;29809;52.432;4.780;2022-07-23T11:39:54;8.73;;;4.57;;
44145;SDS011;29809;52.432;4.780;2022-07-23T11:42:20;4.22;;;2.22;;
44145;SDS011;29809;52.432;4.780;2022-07-23T11:44:46;3.42;;;2.08;;
44145;SDS011;29809;52.432;4.780;2022-07-23T11:47:11;4.03;;;2.15;;
44145;SDS011;29809;52.432;4.780;2022-07-23T11:49:37;3.05;;;1.85;;
44145;SDS011;29809;52.432;4.780;2022-07-23T11:54:29;4.53;;;1.90;;
44145;SDS011;29809;52.432;4.780;2022-07-23T11:56:54;4.88;;;1.65;;
44145;SDS011;29809;52.432;4.780;2022-07-23T11:59:20;2.50;;;1.80;;
44145;SDS011;29809;52.432;4.780;2022-07-23T12:01:55;2.33;;;1.83;;
44145;SDS011;29809;52.432;4.780;2022-07-23T12:04:21;2.53;;;1.48;;
44145;SDS011;29809;52.432;4.780;2022-07-23T12:06:46;2.20;;;1.70;;
44145;SDS011;29809;52.432;4.780;2022-07-23T12:09:11;3.10;;;1.95;;
44145;SDS011;29809;52.432;4.780;2022-07-23T12:11:36;3.72;;;1.70;;
44145;SDS011;29809;52.432;4.780;2022-07-23T12:14:02;3.35;;;1.70;;
44145;SDS011;29809;52.432;4.780;2022-07-23T12:16:27;2.35;;;1.85;;
44145;SDS011;29809;52.432;4.780;2022-07-23T12:18:52;2.28;;;1.83;;
44145;SDS011;29809;52.432;4.780;2022-07-23T12:21:17;3.33;;;1.80;;
44145;SDS011;29809;52.432;4.780;2022-07-23T12:23:43;3.28;;;2.15;;
44145;SDS011;29809;52.432;4.780;2022-07-23T12:26:08;3.60;;;1.85;;
44145;SDS011;29809;52.432;4.780;2022-07-23T12:28:36;3.55;;;1.92;;
44145;SDS011;29809;52.432;4.780;2022-07-23T12:31:02;2.78;;;2.00;;
44145;SDS011;29809;52.432;4.780;2022-07-23T12:33:32;6.15;;;1.70;;
44145;SDS011;29809;52.432;4.780;2022-07-23T12:35:58;2.38;;;1.65;;
44145;SDS011;29809;52.432;4.780;2022-07-23T12:38:24;4.30;;;1.58;;
44145;SDS011;29809;52.432;4.780;2022-07-23T12:40:51;1.55;;;1.23;;
44145;SDS011;29809;52.432;4.780;2022-07-23T12:45:51;2.40;;;1.50;;
44145;SDS011;29809;52.432;4.780;2022-07-23T12:48:27;2.90;;;1.60;;
44145;SDS011;29809;52.432;4.780;2022-07-23T12:50:53;4.00;;;1.77;;
44145;SDS011;29809;52.432;4.780;2022-07-23T12:53:21;4.05;;;1.60;;
44145;SDS011;29809;52.432;4.780;2022-07-23T12:55:47;5.78;;;2.05;;
44145;SDS011;29809;52.432;4.780;2022-07-23T12:58:16;2.08;;;1.55;;
44145;SDS011;29809;52.432;4.780;2022-07-23T13:01:01;1.85;;;1.75;;
44145;SDS011;29809;52.432;4.780;2022-07-23T13:05:53;2.53;;;1.90;;
44145;SDS011;29809;52.432;4.780;2022-07-23T13:08:18;3.22;;;1.60;;
44145;SDS011;29809;52.432;4.780;2022-07-23T13:10:43;1.75;;;1.50;;
44145;SDS011;29809;52.432;4.780;2022-07-23T13:13:12;3.58;;;1.73;;
44145;SDS011;29809;52.432;4.780;2022-07-23T13:15:38;4.15;;;1.50;;
44145;SDS011;29809;52.432;4.780;2022-07-23T13:18:03;2.20;;;1.50;;
44145;SDS011;29809;52.432;4.780;2022-07-23T13:20:28;4.15;;;1.70;;
44145;SDS011;29809;52.432;4.780;2022-07-23T13:22:53;2.10;;;1.25;;
44145;SDS011;29809;52.432;4.780;2022-07-23T13:25:19;3.63;;;1.23;;
44145;SDS011;29809;52.432;4.780;2022-07-23T13:27:44;4.80;;;1.75;;
44145;SDS011;29809;52.432;4.780;2022-07-23T13:30:09;2.75;;;1.50;;
44145;SDS011;29809;52.432;4.780;2022-07-23T13:32:35;2.15;;;1.30;;
44145;SDS011;29809;52.432;4.780;2022-07-23T13:35:01;2.63;;;1.55;;
44145;SDS011;29809;52.432;4.780;2022-07-23T13:37:26;3.90;;;1.20;;
44145;SDS011;29809;52.432;4.780;2022-07-23T13:39:51;4.10;;;1.58;;
44145;SDS011;29809;52.432;4.780;2022-07-23T13:42:16;3.80;;;1.63;;
44145;SDS011;29809;52.432;4.780;2022-07-23T13:44:42;3.33;;;1.30;;
44145;SDS011;29809;52.432;4.780;2022-07-23T13:47:07;2.47;;;1.73;;
44145;SDS011;29809;52.432;4.780;2022-07-23T13:49:32;2.55;;;1.23;;
44145;SDS011;29809;52.432;4.780;2022-07-23T13:51:58;2.88;;;1.00;;
44145;SDS011;29809;52.432;4.780;2022-07-23T13:54:23;5.13;;;1.60;;
44145;SDS011;29809;52.432;4.780;2022-07-23T13:56:48;1.75;;;1.35;;
44145;SDS011;29809;52.432;4.780;2022-07-23T13:59:14;2.53;;;1.52;;
44145;SDS011;29809;52.432;4.780;2022-07-23T14:01:39;2.97;;;1.85;;
44145;SDS011;29809;52.432;4.780;2022-07-23T14:04:04;1.55;;;1.35;;
44145;SDS011;29809;52.432;4.780;2022-07-23T14:06:29;2.97;;;1.23;;
44145;SDS011;29809;52.432;4.780;2022-07-23T14:08:55;1.85;;;1.50;;
44145;SDS011;29809;52.432;4.780;2022-07-23T14:11:20;3.22;;;1.30;;
44145;SDS011;29809;52.432;4.780;2022-07-23T14:13:45;3.50;;;1.63;;
44145;SDS011;29809;52.432;4.780;2022-07-23T14:16:10;2.72;;;1.20;;
44145;SDS011;29809;52.432;4.780;2022-07-23T14:18:36;2.47;;;1.30;;
44145;SDS011;29809;52.432;4.780;2022-07-23T14:21:02;3.40;;;1.17;;
44145;SDS011;29809;52.432;4.780;2022-07-23T14:23:27;3.10;;;1.20;;
44145;SDS011;29809;52.432;4.780;2022-07-23T14:25:53;4.25;;;1.52;;
44145;SDS011;29809;52.432;4.780;2022-07-23T14:28:18;1.50;;;1.17;;
44145;SDS011;29809;52.432;4.780;2022-07-23T14:30:43;4.13;;;1.13;;
44145;SDS011;29809;52.432;4.780;2022-07-23T14:33:09;2.80;;;1.20;;
44145;SDS011;29809;52.432;4.780;2022-07-23T14:35:34;1.73;;;1.02;;
44145;SDS011;29809;52.432;4.780;2022-07-23T14:37:59;2.83;;;1.15;;
44145;SDS011;29809;52.432;4.780;2022-07-23T14:40:24;2.35;;;1.30;;
44145;SDS011;29809;52.432;4.780;2022-07-23T14:42:50;2.35;;;1.10;;
44145;SDS011;29809;52.432;4.780;2022-07-23T14:45:15;2.03;;;1.08;;
44145;SDS011;29809;52.432;4.780;2022-07-23T14:47:40;2.08;;;1.40;;
44145;SDS011;29809;52.432;4.780;2022-07-23T14:50:06;3.03;;;1.38;;
44145;SDS011;29809;52.432;4.780;2022-07-23T14:52:31;3.08;;;1.33;;
44145;SDS011;29809;52.432;4.780;2022-07-23T14:54:56;3.65;;;1.10;;
44145;SDS011;29809;52.432;4.780;2022-07-23T14:57:22;3.63;;;1.10;;
44145;SDS011;29809;52.432;4.780;2022-07-23T14:59:47;3.95;;;1.20;;
44145;SDS011;29809;52.432;4.780;2022-07-23T15:02:12;1.42;;;1.10;;
44145;SDS011;29809;52.432;4.780;2022-07-23T15:04:37;1.63;;;1.05;;
44145;SDS011;29809;52.432;4.780;2022-07-23T15:07:03;1.23;;;1.00;;
44145;SDS011;29809;52.432;4.780;2022-07-23T15:09:28;1.58;;;1.10;;